createdAt,value
2023-05-05T00:00:03.250Z,9.70
2023-05-05T00:02:30.724Z,9.50
2023-05-05T00:04:34.812Z,9.80
2023-05-05T00:06:43.298Z,10.20
2023-05-05T00:08:47.249Z,10.30
2023-05-05T00:10:58.214Z,10.00
2023-05-05T00:13:05.971Z,11.30
2023-05-05T00:15:15.706Z,9.50
2023-05-05T00:17:24.431Z,11.30
2023-05-05T00:19:30.012Z,11.10
2023-05-05T00:21:37.076Z,9.70
2023-05-05T00:23:42.218Z,9.70
2023-05-05T00:25:45.395Z,10.00
2023-05-05T00:27:52.377Z,10.30
2023-05-05T00:31:59.499Z,9.00
2023-05-05T00:34:06.289Z,10.70
2023-05-05T00:36:11.093Z,9.90
2023-05-05T00:38:16.000Z,9.50
2023-05-05T00:40:20.324Z,8.90
2023-05-05T00:42:23.942Z,9.20
2023-05-05T00:44:41.569Z,9.60
2023-05-05T00:46:47.299Z,9.90
2023-05-05T00:50:58.348Z,9.00
2023-05-05T00:53:06.746Z,10.10
2023-05-05T00:55:13.660Z,9.50
2023-05-05T00:57:19.287Z,10.40
2023-05-05T01:01:26.409Z,8.80
2023-05-05T01:03:32.897Z,9.60
2023-05-05T01:06:10.376Z,11.20
2023-05-05T01:08:54.884Z,9.90
2023-05-05T01:11:11.534Z,10.60
2023-05-05T01:13:24.149Z,10.00
2023-05-05T01:15:46.380Z,10.60
2023-05-05T01:18:26.011Z,9.40
2023-05-05T01:20:53.433Z,9.50
2023-05-05T01:23:05.902Z,10.30
2023-05-05T01:25:28.038Z,9.80
2023-05-05T01:27:56.092Z,11.40
2023-05-05T01:30:20.286Z,9.60
2023-05-05T01:32:32.068Z,10.00
2023-05-05T01:35:01.175Z,10.00
2023-05-05T01:37:19.814Z,10.80
2023-05-05T01:39:28.336Z,10.90
2023-05-05T01:41:46.506Z,11.20
2023-05-05T01:43:53.153Z,10.70
2023-05-05T01:48:02.776Z,9.50
2023-05-05T01:50:08.664Z,10.30
2023-05-05T01:52:14.002Z,10.50
2023-05-05T01:54:19.285Z,10.20
2023-05-05T01:56:24.102Z,10.90
2023-05-05T01:58:32.063Z,10.90
2023-05-05T02:00:50.238Z,10.50
2023-05-05T02:02:57.502Z,10.10
2023-05-05T02:05:06.460Z,9.90
2023-05-05T02:07:12.647Z,11.00
2023-05-05T02:09:17.803Z,10.70
2023-05-05T02:11:22.512Z,11.10
2023-05-05T02:13:33.079Z,10.70
2023-05-05T02:15:39.816Z,11.30
2023-05-05T02:17:53.859Z,10.50
2023-05-05T02:20:01.080Z,11.40
2023-05-05T02:22:04.405Z,12.40
2023-05-05T02:24:09.714Z,11.90
2023-05-05T02:26:17.730Z,10.30
2023-05-05T02:28:28.110Z,9.60
2023-05-05T02:30:38.059Z,10.00
2023-05-05T02:32:51.324Z,11.70
2023-05-05T02:37:05.415Z,9.70
2023-05-05T02:39:23.227Z,11.00
2023-05-05T02:41:29.698Z,10.10
2023-05-05T02:43:35.191Z,10.50
2023-05-05T02:45:41.587Z,10.30
2023-05-05T02:47:48.724Z,9.70
2023-05-05T02:49:52.410Z,10.80
2023-05-05T02:52:03.067Z,10.40
2023-05-05T02:54:11.654Z,10.80
2023-05-05T02:56:38.540Z,11.50
2023-05-05T02:58:51.398Z,10.20
2023-05-05T03:01:28.052Z,10.40
2023-05-05T03:03:44.823Z,9.70
2023-05-05T03:06:03.029Z,10.80
2023-05-05T03:08:15.980Z,10.90
2023-05-05T03:10:24.334Z,10.40
2023-05-05T03:12:37.696Z,10.00
2023-05-05T03:17:21.192Z,10.20
2023-05-05T03:19:30.579Z,10.10
2023-05-05T03:21:37.981Z,10.90
2023-05-05T03:23:41.870Z,11.90
2023-05-05T03:25:50.753Z,10.50
2023-05-05T03:28:07.920Z,9.70
2023-05-05T03:30:11.985Z,9.90
2023-05-05T03:32:24.458Z,10.60
2023-05-05T03:34:30.769Z,9.70
2023-05-05T03:36:38.464Z,10.50
2023-05-05T03:40:52.399Z,11.50
2023-05-05T03:43:00.979Z,10.60
2023-05-05T03:45:05.240Z,11.20
2023-05-05T03:47:13.134Z,10.60
2023-05-05T03:49:16.329Z,10.70
2023-05-05T03:51:22.071Z,10.10
2023-05-05T03:53:27.539Z,10.60
2023-05-05T03:55:33.134Z,10.50
2023-05-05T03:57:39.089Z,10.40
2023-05-05T03:59:43.767Z,11.20
2023-05-05T04:01:58.517Z,9.70
2023-05-05T04:04:04.895Z,10.80
2023-05-05T04:06:08.147Z,11.10
2023-05-05T04:08:11.709Z,11.30
2023-05-05T04:10:16.261Z,12.10
2023-05-05T04:12:19.110Z,10.40
2023-05-05T04:14:25.327Z,11.20
2023-05-05T04:16:33.582Z,9.80
2023-05-05T04:18:37.005Z,10.40
2023-05-05T04:20:41.707Z,10.60
2023-05-05T04:22:46.187Z,9.80
2023-05-05T04:24:52.255Z,10.70
2023-05-05T04:26:59.166Z,10.40
2023-05-05T04:29:07.810Z,10.70
2023-05-05T04:31:18.463Z,11.90
2023-05-05T04:33:23.536Z,11.40
2023-05-05T04:35:30.216Z,10.70
2023-05-05T04:37:34.951Z,10.00
2023-05-05T04:39:38.105Z,10.20
2023-05-05T04:41:41.132Z,10.90
2023-05-05T04:43:44.969Z,11.20
2023-05-05T04:45:55.919Z,9.90
2023-05-05T04:48:05.225Z,11.90
2023-05-05T04:50:11.567Z,10.00
2023-05-05T04:52:14.517Z,10.30
2023-05-05T04:54:19.111Z,15.90
2023-05-05T04:56:26.597Z,12.10
2023-05-05T04:58:30.653Z,12.30
2023-05-05T05:00:37.475Z,12.30
2023-05-05T05:02:47.588Z,12.40
2023-05-05T05:04:51.797Z,11.90
2023-05-05T05:07:03.519Z,12.50
2023-05-05T05:09:08.772Z,12.30
2023-05-05T05:11:18.971Z,13.50
2023-05-05T05:13:23.615Z,12.80
2023-05-05T05:15:27.128Z,10.90
2023-05-05T05:17:30.646Z,12.00
2023-05-05T05:19:40.196Z,12.00
2023-05-05T05:21:49.110Z,11.80
2023-05-05T05:23:52.262Z,11.90
2023-05-05T05:25:56.506Z,12.30
2023-05-05T05:28:09.473Z,11.40
2023-05-05T05:30:19.234Z,11.90
2023-05-05T05:32:22.785Z,12.10
2023-05-05T05:34:27.336Z,12.10
2023-05-05T05:38:39.615Z,11.20
2023-05-05T05:40:44.546Z,12.50
2023-05-05T05:42:51.683Z,12.80
2023-05-05T05:44:57.840Z,13.00
2023-05-05T05:47:00.722Z,11.30
2023-05-05T05:49:06.479Z,10.50
2023-05-05T05:51:10.177Z,11.70
2023-05-05T05:53:16.745Z,10.60
2023-05-05T05:55:25.389Z,12.30
2023-05-05T05:57:29.284Z,12.20
2023-05-05T05:59:40.821Z,11.10
2023-05-05T06:01:44.027Z,12.60
2023-05-05T06:03:48.120Z,12.30
2023-05-05T06:05:53.981Z,11.40
2023-05-05T06:07:58.448Z,11.50
2023-05-05T06:10:14.350Z,11.20
2023-05-05T06:12:18.721Z,10.40
2023-05-05T06:14:30.338Z,12.50
2023-05-05T06:16:41.435Z,12.90
2023-05-05T06:18:49.958Z,11.30
2023-05-05T06:20:54.523Z,11.60
2023-05-05T06:23:03.027Z,11.40
2023-05-05T06:25:08.145Z,12.20
2023-05-05T06:27:14.049Z,10.90
2023-05-05T06:29:18.395Z,11.40
2023-05-05T06:31:28.988Z,11.60
2023-05-05T06:33:34.682Z,11.30
2023-05-05T06:35:39.768Z,12.00
2023-05-05T06:37:43.554Z,10.40
2023-05-05T06:39:46.724Z,13.00
2023-05-05T06:41:52.062Z,10.40
2023-05-05T06:43:56.289Z,11.20
2023-05-05T06:46:00.101Z,11.20
2023-05-05T06:48:06.191Z,12.00
2023-05-05T06:50:12.477Z,11.00
2023-05-05T06:52:16.834Z,10.50
2023-05-05T06:54:21.687Z,9.60
2023-05-05T06:56:25.063Z,9.70
2023-05-05T06:58:28.523Z,11.10
2023-05-05T07:00:32.708Z,10.80
2023-05-05T07:02:39.010Z,14.50
2023-05-05T07:06:48.214Z,10.60
2023-05-05T07:08:52.112Z,11.20
2023-05-05T07:10:55.704Z,10.30
2023-05-05T07:12:59.226Z,9.50
2023-05-05T07:15:15.545Z,8.70
2023-05-05T07:17:23.597Z,11.10
2023-05-05T07:19:29.342Z,10.40
2023-05-05T07:21:37.869Z,10.30
2023-05-05T07:23:44.464Z,11.00
2023-05-05T07:25:49.970Z,10.00
2023-05-05T07:27:59.001Z,10.30
2023-05-05T07:30:04.048Z,9.50
2023-05-05T07:32:14.107Z,9.70
2023-05-05T07:34:23.953Z,9.40
2023-05-05T07:36:31.936Z,9.80
2023-05-05T07:38:37.080Z,9.40
2023-05-05T07:40:42.596Z,8.70
2023-05-05T07:42:51.256Z,8.30
2023-05-05T07:45:07.662Z,9.70
2023-05-05T07:47:11.247Z,12.10
2023-05-05T07:49:20.033Z,9.80
2023-05-05T07:51:32.534Z,9.60
2023-05-05T07:53:37.503Z,9.50
2023-05-05T07:55:41.493Z,9.10
2023-05-05T07:57:48.041Z,8.90
2023-05-05T07:59:53.623Z,8.60
2023-05-05T08:02:06.978Z,9.00
2023-05-05T08:04:10.202Z,8.70
2023-05-05T08:06:16.094Z,9.50
2023-05-05T08:10:31.699Z,6.60
2023-05-05T08:12:37.780Z,8.20
2023-05-05T08:14:46.766Z,7.40
2023-05-05T08:16:52.061Z,7.60
2023-05-05T08:18:55.484Z,9.80
2023-05-05T08:20:58.854Z,10.10
2023-05-05T08:23:03.661Z,10.20
2023-05-05T08:25:08.706Z,8.90
2023-05-05T08:27:11.575Z,9.60
2023-05-05T08:29:15.089Z,9.70
2023-05-05T08:31:20.423Z,10.20
2023-05-05T08:33:24.098Z,10.50
2023-05-05T08:35:30.400Z,10.20
2023-05-05T08:39:52.329Z,8.30
2023-05-05T08:42:06.972Z,8.40
2023-05-05T08:44:13.503Z,10.90
2023-05-05T08:46:18.005Z,10.40
2023-05-05T08:48:25.470Z,10.60
2023-05-05T08:50:33.314Z,10.10
2023-05-05T08:52:44.517Z,9.70
2023-05-05T08:55:03.299Z,10.20
2023-05-05T08:57:09.934Z,8.50
2023-05-05T08:59:14.842Z,8.60
2023-05-05T09:01:20.967Z,9.70
2023-05-05T09:03:27.080Z,9.90
2023-05-05T09:07:39.751Z,10.30
2023-05-05T09:09:50.548Z,10.10
2023-05-05T09:14:06.826Z,10.30
2023-05-05T09:16:13.709Z,12.00
2023-05-05T09:18:19.646Z,12.20
2023-05-05T09:20:22.493Z,10.60
2023-05-05T09:22:34.784Z,9.70
2023-05-05T09:24:38.156Z,9.20
2023-05-05T09:26:45.280Z,8.90
2023-05-05T09:28:54.402Z,9.10
2023-05-05T09:31:16.659Z,10.70
2023-05-05T09:33:31.138Z,9.80
2023-05-05T09:36:03.344Z,8.80
2023-05-05T09:38:14.254Z,9.40
2023-05-05T09:40:21.392Z,9.40
2023-05-05T09:42:24.286Z,8.80
2023-05-05T09:44:35.156Z,11.70
2023-05-05T09:46:51.143Z,11.80
2023-05-05T09:48:54.226Z,11.40
2023-05-05T09:50:59.029Z,12.10
2023-05-05T09:53:08.525Z,12.00
2023-05-05T09:55:18.508Z,11.50
2023-05-05T09:57:37.582Z,11.70
2023-05-05T09:59:55.217Z,11.00
2023-05-05T10:02:16.842Z,10.90
2023-05-05T10:04:31.068Z,10.30
2023-05-05T10:06:49.101Z,11.30
2023-05-05T10:09:05.724Z,10.50
2023-05-05T10:11:08.904Z,10.70
2023-05-05T10:13:19.024Z,11.80
2023-05-05T10:15:22.707Z,10.10
2023-05-05T10:17:31.126Z,10.80
2023-05-05T10:19:36.080Z,10.20
2023-05-05T10:21:42.201Z,12.30
2023-05-05T10:23:50.761Z,12.00
2023-05-05T10:25:59.463Z,12.30
2023-05-05T10:28:07.891Z,11.90
2023-05-05T10:30:22.927Z,11.30
2023-05-05T10:32:56.972Z,11.70
2023-05-05T10:35:03.143Z,10.90
2023-05-05T10:37:07.754Z,12.60
2023-05-05T10:39:16.322Z,13.00
2023-05-05T10:41:22.582Z,8.90
2023-05-05T10:43:25.938Z,10.20
2023-05-05T10:45:36.639Z,11.20
2023-05-05T10:47:40.708Z,11.30
2023-05-05T10:49:59.394Z,12.40
2023-05-05T10:52:28.438Z,12.80
2023-05-05T10:54:44.473Z,12.20
2023-05-05T10:56:51.645Z,11.90
2023-05-05T10:59:00.192Z,11.00
2023-05-05T11:01:05.830Z,11.40
2023-05-05T11:03:18.463Z,11.50
2023-05-05T11:05:31.519Z,13.00
2023-05-05T11:07:35.392Z,12.50
2023-05-05T11:10:06.657Z,12.50
2023-05-05T11:12:14.619Z,12.30
2023-05-05T11:14:24.324Z,12.80
2023-05-05T11:16:50.661Z,12.30
2023-05-05T11:18:55.121Z,11.40
2023-05-05T11:20:57.949Z,12.80
2023-05-05T11:23:17.769Z,11.20
2023-05-05T11:25:37.207Z,13.10
2023-05-05T11:28:13.531Z,12.90
2023-05-05T11:30:18.043Z,10.00
2023-05-05T11:32:21.187Z,8.90
2023-05-05T11:34:29.385Z,11.60
2023-05-05T11:36:45.390Z,10.50
2023-05-05T11:38:57.625Z,12.60
2023-05-05T11:41:25.366Z,9.30
2023-05-05T11:43:28.012Z,10.40
2023-05-05T11:45:31.110Z,9.80
2023-05-05T11:47:34.843Z,11.60
2023-05-05T11:49:40.625Z,9.70
2023-05-05T11:51:44.030Z,12.60
2023-05-05T11:53:48.181Z,11.70
2023-05-05T11:56:09.426Z,12.00
2023-05-05T11:58:28.957Z,11.30
2023-05-05T12:00:35.061Z,10.80
2023-05-05T12:02:38.011Z,10.20
2023-05-05T12:04:43.425Z,10.40
2023-05-05T12:06:51.555Z,10.70
2023-05-05T12:08:56.436Z,10.50
2023-05-05T12:11:03.763Z,10.10
2023-05-05T12:13:21.868Z,10.80
2023-05-05T12:15:30.344Z,11.50
2023-05-05T12:17:43.145Z,11.00
2023-05-05T12:20:15.154Z,12.40
2023-05-05T12:22:19.642Z,7.10
2023-05-05T12:24:23.416Z,9.50
2023-05-05T12:26:32.161Z,10.50
2023-05-05T12:28:49.749Z,11.20
2023-05-05T12:31:02.095Z,11.70
2023-05-05T12:33:08.336Z,8.00
2023-05-05T12:35:16.151Z,9.70
2023-05-05T12:37:33.285Z,9.40
2023-05-05T12:39:41.732Z,7.80
2023-05-05T12:41:48.364Z,8.40
2023-05-05T12:43:56.906Z,9.40
2023-05-05T12:46:08.980Z,9.20
2023-05-05T12:48:23.125Z,7.50
2023-05-05T12:50:34.128Z,7.30
2023-05-05T12:52:46.996Z,7.00
2023-05-05T12:55:01.530Z,9.10
2023-05-05T12:57:13.894Z,8.00
2023-05-05T12:59:23.491Z,7.50
2023-05-05T13:01:27.075Z,7.80
2023-05-05T13:03:31.435Z,6.80
2023-05-05T13:05:42.976Z,6.50
2023-05-05T13:07:54.581Z,6.10
2023-05-05T13:10:16.264Z,6.40
2023-05-05T13:12:22.192Z,5.90
2023-05-05T13:14:31.667Z,4.60
2023-05-05T13:16:36.032Z,4.90
2023-05-05T13:18:54.685Z,4.90
2023-05-05T13:21:01.497Z,4.50
2023-05-05T13:23:12.578Z,5.40
2023-05-05T13:25:15.949Z,4.90
2023-05-05T13:27:24.242Z,5.70
2023-05-05T13:29:41.683Z,4.90
2023-05-05T13:31:45.561Z,5.80
2023-05-05T13:33:49.381Z,5.00
2023-05-05T13:35:53.959Z,4.70
2023-05-05T13:37:58.145Z,4.80
2023-05-05T13:40:12.763Z,4.00
2023-05-05T13:42:50.487Z,3.90
2023-05-05T13:44:54.403Z,4.10
2023-05-05T13:46:57.710Z,3.20
2023-05-05T13:49:01.860Z,3.30
2023-05-05T13:51:09.096Z,3.20
2023-05-05T13:53:12.408Z,3.00
2023-05-05T13:55:16.185Z,3.00
2023-05-05T13:57:21.625Z,2.60
2023-05-05T13:59:28.451Z,3.00
2023-05-05T14:01:36.034Z,3.30
2023-05-05T14:03:41.840Z,2.40
2023-05-05T14:05:46.202Z,2.60
2023-05-05T14:07:57.861Z,2.70
2023-05-05T14:10:03.901Z,2.80
2023-05-05T14:12:07.002Z,3.40
2023-05-05T14:14:12.105Z,3.10
2023-05-05T14:16:16.249Z,4.10
2023-05-05T14:18:21.295Z,4.80
2023-05-05T14:20:28.812Z,4.20
2023-05-05T14:22:39.132Z,3.80
2023-05-05T14:24:45.217Z,4.30
2023-05-05T14:26:49.408Z,4.00
2023-05-05T14:29:12.244Z,4.10
2023-05-05T14:31:15.907Z,5.30
2023-05-05T14:33:24.023Z,5.00
2023-05-05T14:35:30.135Z,4.70
2023-05-05T14:37:36.660Z,4.90
2023-05-05T14:39:40.622Z,6.20
2023-05-05T14:41:52.929Z,5.10
2023-05-05T14:43:57.366Z,6.20
2023-05-05T14:46:02.766Z,5.90
2023-05-05T14:48:09.642Z,6.60
2023-05-05T14:50:14.406Z,6.20
2023-05-05T14:52:19.285Z,6.00
2023-05-05T14:54:29.604Z,5.90
2023-05-05T14:56:51.768Z,7.20
2023-05-05T14:58:59.240Z,5.90
2023-05-05T15:01:07.814Z,6.60
2023-05-05T15:03:13.110Z,6.70
2023-05-05T15:05:19.581Z,6.30
2023-05-05T15:07:28.695Z,6.10
2023-05-05T15:09:35.622Z,5.90
2023-05-05T15:11:47.583Z,6.20
2023-05-05T15:13:58.340Z,5.80
2023-05-05T15:16:01.700Z,6.80
2023-05-05T15:18:07.651Z,7.90
2023-05-05T15:20:13.563Z,5.70
2023-05-05T15:22:18.280Z,6.40
2023-05-05T15:24:21.947Z,6.00
2023-05-05T15:26:24.854Z,5.80
2023-05-05T15:28:28.931Z,6.70
2023-05-05T15:31:04.038Z,6.50
2023-05-05T15:33:08.662Z,5.90
2023-05-05T15:35:13.273Z,6.50
2023-05-05T15:37:18.417Z,6.70
2023-05-05T15:39:22.068Z,8.50
2023-05-05T15:41:29.338Z,7.80
2023-05-05T15:43:36.034Z,8.50
2023-05-05T15:45:42.593Z,7.90
2023-05-05T15:47:46.637Z,8.30
2023-05-05T15:49:52.958Z,8.50
2023-05-05T15:51:58.617Z,9.00
2023-05-05T15:54:03.170Z,7.10
2023-05-05T15:56:07.679Z,6.90
2023-05-05T15:58:10.525Z,6.70
2023-05-05T16:00:18.432Z,7.50
2023-05-05T16:02:22.447Z,6.50
2023-05-05T16:04:26.755Z,6.20
2023-05-05T16:06:34.473Z,8.10
2023-05-05T16:08:37.725Z,7.40
2023-05-05T16:10:43.188Z,8.40
2023-05-05T16:12:48.823Z,9.20
2023-05-05T16:14:53.443Z,7.90
2023-05-05T16:17:02.227Z,6.90
2023-05-05T16:19:07.147Z,6.90
2023-05-05T16:21:11.593Z,6.80
2023-05-05T16:23:22.075Z,7.40
2023-05-05T16:25:28.086Z,8.10
2023-05-05T16:27:32.125Z,8.70
2023-05-05T16:29:51.182Z,8.30
2023-05-05T16:31:55.601Z,8.20
2023-05-05T16:34:00.118Z,8.20
2023-05-05T16:36:03.355Z,8.70
2023-05-05T16:38:13.543Z,8.00
2023-05-05T16:40:17.521Z,7.60
2023-05-05T16:42:23.094Z,7.90
2023-05-05T16:44:27.038Z,7.90
2023-05-05T16:46:29.731Z,9.00
2023-05-05T16:48:37.866Z,8.70
2023-05-05T16:50:41.796Z,7.00
2023-05-05T16:52:48.521Z,8.80
2023-05-05T16:54:56.024Z,12.50
2023-05-05T16:56:58.928Z,11.30
2023-05-05T16:59:02.997Z,10.80
2023-05-05T17:01:07.175Z,9.10
2023-05-05T17:05:33.197Z,7.50
2023-05-05T17:07:49.778Z,7.70
2023-05-05T17:10:05.775Z,7.10
2023-05-05T17:12:12.039Z,7.70
2023-05-05T17:14:16.610Z,7.40
2023-05-05T17:16:27.921Z,7.60
2023-05-05T17:18:32.527Z,7.80
2023-05-05T17:20:36.452Z,7.60
2023-05-05T17:22:42.040Z,7.50
2023-05-05T17:24:48.528Z,7.50
2023-05-05T17:26:51.847Z,7.10
2023-05-05T17:28:58.393Z,8.10
2023-05-05T17:31:04.991Z,8.00
2023-05-05T17:33:11.562Z,8.40
2023-05-05T17:35:17.374Z,9.30
2023-05-05T17:37:22.706Z,9.80
2023-05-05T17:39:26.506Z,7.80
2023-05-05T17:41:30.116Z,8.30
2023-05-05T17:43:35.468Z,10.00
2023-05-05T17:45:43.193Z,10.50
2023-05-05T17:47:48.602Z,9.50
2023-05-05T17:50:01.833Z,8.90
2023-05-05T17:52:07.476Z,8.60
2023-05-05T17:54:11.282Z,9.50
2023-05-05T17:56:21.107Z,8.50
2023-05-05T17:58:26.251Z,8.60
2023-05-05T18:00:32.098Z,8.50
2023-05-05T18:02:39.550Z,9.30
2023-05-05T18:04:43.662Z,8.60
2023-05-05T18:06:47.363Z,9.00
2023-05-05T18:08:55.963Z,9.80
2023-05-05T18:11:01.844Z,11.50
2023-05-05T18:13:05.127Z,13.40
2023-05-05T18:15:09.801Z,12.60
2023-05-05T18:17:15.233Z,9.10
2023-05-05T18:19:45.311Z,9.80
2023-05-05T18:21:54.527Z,10.10
2023-05-05T18:24:07.624Z,10.00
2023-05-05T18:26:20.960Z,9.90
2023-05-05T18:28:33.315Z,8.30
2023-05-05T18:30:39.853Z,8.40
2023-05-05T18:32:43.951Z,7.30
2023-05-05T18:34:49.182Z,8.30
2023-05-05T18:36:55.474Z,7.20
2023-05-05T18:39:06.933Z,8.80
2023-05-05T18:41:09.929Z,8.40
2023-05-05T18:43:13.162Z,5.20
2023-05-05T18:45:17.286Z,6.30
2023-05-05T18:47:21.417Z,4.80
2023-05-05T18:49:26.506Z,6.30
2023-05-05T18:51:32.291Z,4.80
2023-05-05T18:53:41.528Z,4.70
2023-05-05T18:55:50.561Z,4.50
2023-05-05T18:57:57.047Z,4.80
2023-05-05T19:00:02.683Z,5.80
2023-05-05T19:02:06.595Z,5.80
2023-05-05T19:04:22.639Z,5.10
2023-05-05T19:06:34.346Z,5.60
2023-05-05T19:08:39.154Z,5.10
2023-05-05T19:10:48.224Z,5.00
2023-05-05T19:12:53.173Z,5.70
2023-05-05T19:14:57.193Z,4.70
2023-05-05T19:17:14.656Z,4.20
2023-05-05T19:19:19.498Z,4.20
2023-05-05T19:21:23.264Z,5.40
2023-05-05T19:23:28.213Z,6.00
2023-05-05T19:25:32.991Z,6.30
2023-05-05T19:27:38.026Z,9.40
2023-05-05T19:29:56.498Z,5.10
2023-05-05T19:32:00.275Z,4.10
2023-05-05T19:34:05.178Z,4.20
2023-05-05T19:36:13.130Z,3.70
2023-05-05T19:38:19.604Z,3.90
2023-05-05T19:40:23.429Z,4.90
2023-05-05T19:42:32.641Z,4.10
2023-05-05T19:44:37.741Z,6.40
2023-05-05T19:46:42.960Z,5.80
2023-05-05T19:48:47.228Z,7.30
2023-05-05T19:50:50.929Z,7.00
2023-05-05T19:52:59.792Z,7.10
2023-05-05T19:55:03.105Z,6.50
2023-05-05T19:57:08.792Z,5.80
2023-05-05T19:59:22.013Z,5.60
2023-05-05T20:01:25.381Z,4.70
2023-05-05T20:03:30.017Z,4.30
2023-05-05T20:05:33.985Z,4.60
2023-05-05T20:08:01.153Z,5.20
2023-05-05T20:10:09.553Z,5.70
2023-05-05T20:12:22.189Z,4.80
2023-05-05T20:14:26.807Z,5.00
2023-05-05T20:16:33.726Z,4.90
2023-05-05T20:18:40.425Z,5.00
2023-05-05T20:20:45.807Z,6.10
2023-05-05T20:22:50.786Z,4.70
2023-05-05T20:24:54.792Z,5.40
2023-05-05T20:26:58.810Z,4.30
2023-05-05T20:29:06.534Z,4.80
2023-05-05T20:31:16.067Z,4.90
2023-05-05T20:33:21.901Z,4.70
2023-05-05T20:35:32.729Z,5.20
2023-05-05T20:37:41.816Z,4.40
2023-05-05T20:39:44.769Z,5.30
2023-05-05T20:41:49.896Z,5.50
2023-05-05T20:44:03.827Z,5.50
2023-05-05T20:46:13.106Z,5.90
2023-05-05T20:48:16.259Z,6.10
2023-05-05T20:50:21.447Z,5.40
2023-05-05T20:52:24.155Z,5.10
2023-05-05T20:54:33.980Z,5.50
2023-05-05T20:56:39.393Z,5.40
2023-05-05T20:58:43.518Z,6.00
2023-05-05T21:00:52.401Z,5.30
2023-05-05T21:03:03.244Z,6.10
2023-05-05T21:05:09.719Z,5.90
2023-05-05T21:07:13.418Z,6.50
2023-05-05T21:09:22.248Z,5.50
2023-05-05T21:11:27.839Z,4.90
2023-05-05T21:13:33.436Z,5.10
2023-05-05T21:15:38.066Z,5.10
2023-05-05T21:17:45.067Z,5.50
2023-05-05T21:19:52.392Z,5.60
2023-05-05T21:21:59.586Z,4.60
2023-05-05T21:24:07.748Z,5.60
2023-05-05T21:26:17.022Z,13.10
2023-05-05T21:28:22.327Z,17.30
2023-05-05T21:30:26.056Z,6.60
2023-05-05T21:32:30.666Z,5.80
2023-05-05T21:34:33.869Z,5.90
2023-05-05T21:36:41.243Z,6.30
2023-05-05T21:38:46.785Z,5.70
2023-05-05T21:40:58.257Z,6.80
2023-05-05T21:43:15.907Z,6.90
2023-05-05T21:45:18.909Z,7.20
2023-05-05T21:47:28.868Z,6.70
2023-05-05T21:49:33.400Z,6.20
2023-05-05T21:51:38.453Z,5.70
2023-05-05T21:53:45.221Z,6.40
2023-05-05T21:55:50.478Z,5.90
2023-05-05T21:57:55.904Z,6.20
2023-05-05T22:00:01.103Z,5.50
2023-05-05T22:02:08.373Z,6.00
2023-05-05T22:04:19.466Z,5.90
2023-05-05T22:06:24.752Z,6.80
2023-05-05T22:08:29.667Z,6.40
2023-05-05T22:10:34.914Z,5.70
2023-05-05T22:12:44.043Z,6.50
2023-05-05T22:14:48.728Z,7.20
2023-05-05T22:17:43.445Z,5.20
2023-05-05T22:19:47.372Z,6.60
2023-05-05T22:21:53.899Z,6.10
2023-05-05T22:24:00.350Z,5.70
2023-05-05T22:26:04.963Z,5.60
2023-05-05T22:28:10.341Z,5.80
2023-05-05T22:30:15.318Z,7.70
2023-05-05T22:32:24.551Z,7.20
2023-05-05T22:34:31.460Z,6.40
2023-05-05T22:36:36.912Z,6.40
2023-05-05T22:38:40.402Z,7.30
2023-05-05T22:40:45.089Z,6.70
2023-05-05T22:42:50.155Z,7.00
2023-05-05T22:44:52.944Z,7.20
2023-05-05T22:46:57.562Z,7.30
2023-05-05T22:49:03.013Z,6.70
2023-05-05T22:51:09.061Z,7.10
2023-05-05T22:53:30.889Z,6.60
2023-05-05T22:55:35.125Z,7.10
2023-05-05T22:57:41.074Z,7.50
2023-05-05T22:59:46.374Z,8.10
2023-05-05T23:01:51.456Z,7.40
2023-05-05T23:04:03.718Z,7.20
2023-05-05T23:06:06.727Z,7.00
2023-05-05T23:08:09.985Z,7.90
2023-05-05T23:10:13.078Z,7.00
2023-05-05T23:12:16.991Z,7.60
2023-05-05T23:14:20.384Z,6.60
2023-05-05T23:16:23.663Z,6.70
2023-05-05T23:18:26.432Z,7.40
2023-05-05T23:20:30.327Z,7.00
2023-05-05T23:22:35.141Z,7.60
2023-05-05T23:24:37.747Z,8.20
2023-05-05T23:26:40.707Z,7.20
2023-05-05T23:28:45.103Z,7.50
2023-05-05T23:30:52.821Z,6.60
2023-05-05T23:33:02.246Z,6.10
2023-05-05T23:35:07.554Z,7.40
2023-05-05T23:37:13.966Z,7.10
2023-05-05T23:39:20.910Z,6.30
2023-05-05T23:41:24.672Z,6.60
2023-05-05T23:43:40.516Z,6.50
2023-05-05T23:45:45.180Z,7.10
2023-05-05T23:47:51.137Z,6.60
2023-05-05T23:52:01.493Z,6.50
2023-05-05T23:54:10.065Z,7.40
2023-05-05T23:56:13.156Z,9.20
2023-05-05T23:58:18.208Z,7.60
